createdAt,value
2024-01-31T00:02:10.634Z,39.83
2024-01-31T00:04:40.949Z,35.23
2024-01-31T00:07:08.125Z,37.80
2024-01-31T00:09:35.142Z,36.47
2024-01-31T00:12:02.181Z,33.80
2024-01-31T00:14:29.273Z,35.37
2024-01-31T00:16:56.229Z,39.87
2024-01-31T00:19:24.222Z,42.37
2024-01-31T00:21:51.328Z,66.10
2024-01-31T00:24:18.255Z,52.83
2024-01-31T00:26:45.223Z,42.37
2024-01-31T00:29:12.364Z,32.70
2024-01-31T00:31:39.463Z,27.73
2024-01-31T00:34:06.683Z,29.20
2024-01-31T00:36:33.741Z,30.97
2024-01-31T00:39:03.741Z,31.93
2024-01-31T00:41:31.959Z,28.50
2024-01-31T00:43:59.333Z,27.83
2024-01-31T00:46:26.354Z,29.10
2024-01-31T00:48:53.652Z,31.47
2024-01-31T00:51:20.684Z,32.67
2024-01-31T00:53:48.706Z,34.63
2024-01-31T00:56:16.045Z,34.23
2024-01-31T00:58:42.944Z,35.67
2024-01-31T01:01:10.081Z,35.57
2024-01-31T01:03:37.199Z,38.27
2024-01-31T01:06:06.117Z,33.97
2024-01-31T01:08:33.141Z,32.03
2024-01-31T01:11:00.241Z,27.47
2024-01-31T01:13:27.358Z,27.90
2024-01-31T01:15:54.287Z,28.93
2024-01-31T01:18:21.568Z,26.10
2024-01-31T01:20:48.623Z,26.73
2024-01-31T01:23:16.491Z,27.60
2024-01-31T01:25:43.811Z,27.77
2024-01-31T01:28:11.086Z,42.57
2024-01-31T01:30:38.120Z,30.37
2024-01-31T01:33:05.431Z,26.90
2024-01-31T01:35:32.572Z,29.40
2024-01-31T01:37:59.603Z,32.33
2024-01-31T01:40:26.722Z,29.17
2024-01-31T01:42:53.913Z,27.23
2024-01-31T01:45:21.474Z,24.57
2024-01-31T01:47:52.284Z,27.30
2024-01-31T01:50:20.544Z,30.67
2024-01-31T01:52:48.667Z,29.30
2024-01-31T01:55:15.955Z,27.07
2024-01-31T01:57:43.280Z,24.43
2024-01-31T02:00:11.590Z,24.70
2024-01-31T02:02:42.886Z,25.57
2024-01-31T02:05:10.072Z,27.37
2024-01-31T02:07:38.183Z,25.17
2024-01-31T02:10:08.588Z,27.10
2024-01-31T02:12:35.580Z,24.67
2024-01-31T02:15:03.382Z,27.70
2024-01-31T02:17:31.628Z,27.07
2024-01-31T02:19:58.755Z,28.40
2024-01-31T02:22:25.970Z,26.27
2024-01-31T02:24:53.080Z,25.13
2024-01-31T02:27:21.307Z,35.17
2024-01-31T02:29:48.229Z,41.60
2024-01-31T02:32:15.282Z,32.37
2024-01-31T02:34:42.580Z,26.57
2024-01-31T02:37:09.619Z,27.10
2024-01-31T02:39:36.924Z,26.83
2024-01-31T02:42:04.372Z,26.73
2024-01-31T02:44:31.371Z,29.37
2024-01-31T02:46:58.566Z,34.90
2024-01-31T02:49:25.777Z,32.53
2024-01-31T02:51:53.949Z,28.87
2024-01-31T02:54:20.969Z,27.67
2024-01-31T02:56:48.124Z,26.10
2024-01-31T02:59:15.189Z,27.17
2024-01-31T03:01:46.321Z,25.47
2024-01-31T03:04:13.684Z,23.93
2024-01-31T03:06:41.222Z,24.03
2024-01-31T03:09:08.332Z,25.30
2024-01-31T03:11:35.260Z,25.27
2024-01-31T03:14:02.594Z,27.23
2024-01-31T03:16:29.539Z,23.83
2024-01-31T03:18:58.461Z,30.37
2024-01-31T03:21:25.581Z,27.20
2024-01-31T03:23:52.614Z,23.03
2024-01-31T03:26:19.683Z,24.60
2024-01-31T03:28:46.783Z,27.57
2024-01-31T03:31:13.960Z,23.67
2024-01-31T03:33:41.112Z,27.13
2024-01-31T03:36:12.303Z,23.80
2024-01-31T03:38:42.709Z,19.57
2024-01-31T03:41:09.824Z,16.90
2024-01-31T03:43:37.315Z,16.90
2024-01-31T03:46:08.246Z,16.53
2024-01-31T03:48:35.777Z,17.30
2024-01-31T03:51:03.153Z,17.43
2024-01-31T03:53:30.241Z,15.13
2024-01-31T03:55:57.231Z,15.20
2024-01-31T03:58:24.290Z,15.47
2024-01-31T04:00:51.402Z,14.13
2024-01-31T04:03:22.152Z,20.70
2024-01-31T04:05:50.334Z,14.00
2024-01-31T04:08:17.614Z,23.43
2024-01-31T04:10:44.667Z,19.20
2024-01-31T04:13:11.823Z,15.37
2024-01-31T04:15:38.891Z,16.53
2024-01-31T04:18:08.918Z,15.10
2024-01-31T04:20:39.995Z,16.23
2024-01-31T04:23:07.768Z,15.43
2024-01-31T04:25:35.457Z,15.97
2024-01-31T04:28:02.776Z,17.90
2024-01-31T04:30:31.443Z,16.70
2024-01-31T04:33:03.563Z,18.80
2024-01-31T04:35:30.871Z,18.33
2024-01-31T04:37:57.958Z,17.97
2024-01-31T04:40:25.024Z,18.80
2024-01-31T04:42:54.270Z,18.47
2024-01-31T04:45:21.759Z,19.93
2024-01-31T04:47:48.792Z,19.20
2024-01-31T04:50:16.035Z,21.30
2024-01-31T04:52:43.234Z,18.70
2024-01-31T04:55:10.897Z,21.97
2024-01-31T04:57:39.973Z,20.23
2024-01-31T05:00:08.576Z,22.43
2024-01-31T05:02:35.520Z,25.07
2024-01-31T05:05:02.714Z,20.57
2024-01-31T05:07:29.911Z,66.93
2024-01-31T05:09:57.315Z,24.40
2024-01-31T05:12:24.213Z,29.33
2024-01-31T05:14:51.209Z,23.13
2024-01-31T05:17:18.734Z,29.53
2024-01-31T05:19:45.904Z,26.53
2024-01-31T05:22:12.880Z,24.33
2024-01-31T05:24:41.022Z,24.53
2024-01-31T05:27:09.932Z,24.53
2024-01-31T05:29:37.181Z,21.37
2024-01-31T05:32:05.210Z,92.87
2024-01-31T05:34:32.264Z,161.33
2024-01-31T05:36:59.447Z,104.97
2024-01-31T05:39:26.589Z,113.63
2024-01-31T05:41:53.708Z,92.93
2024-01-31T05:44:22.378Z,160.03
2024-01-31T05:46:49.525Z,234.63
2024-01-31T05:49:16.911Z,106.90
2024-01-31T05:51:43.874Z,97.40
2024-01-31T05:54:10.906Z,38.87
2024-01-31T05:56:38.533Z,44.03
2024-01-31T05:59:07.313Z,50.20
2024-01-31T06:01:34.548Z,56.20
2024-01-31T06:04:04.064Z,74.33
2024-01-31T06:06:31.725Z,59.87
2024-01-31T06:08:58.788Z,50.63
2024-01-31T06:11:25.834Z,41.50
2024-01-31T06:13:52.783Z,29.67
2024-01-31T06:16:19.785Z,31.07
2024-01-31T06:18:46.783Z,37.57
2024-01-31T06:21:13.693Z,31.50
2024-01-31T06:23:40.669Z,28.53
2024-01-31T06:26:08.711Z,32.13
2024-01-31T06:28:39.998Z,36.00
2024-01-31T06:31:15.236Z,26.70
2024-01-31T06:33:43.316Z,24.57
2024-01-31T06:36:10.837Z,24.90
2024-01-31T06:38:38.150Z,24.07
2024-01-31T06:41:05.172Z,24.90
2024-01-31T06:43:32.166Z,25.97
2024-01-31T06:45:59.465Z,26.67
2024-01-31T06:48:26.540Z,30.77
2024-01-31T06:50:53.841Z,29.80
2024-01-31T06:53:20.842Z,33.50
2024-01-31T06:55:47.841Z,47.43
2024-01-31T06:58:15.304Z,41.97
2024-01-31T07:00:42.561Z,58.77
2024-01-31T07:03:09.617Z,40.90
2024-01-31T07:05:36.636Z,29.00
2024-01-31T07:08:03.816Z,30.00
2024-01-31T07:10:31.042Z,32.40
2024-01-31T07:12:58.322Z,32.20
2024-01-31T07:15:25.325Z,31.27
2024-01-31T07:17:52.373Z,30.27
2024-01-31T07:20:19.409Z,29.37
2024-01-31T07:22:46.651Z,29.43
2024-01-31T07:25:16.660Z,27.27
2024-01-31T07:27:46.149Z,29.50
2024-01-31T07:30:13.516Z,25.27
2024-01-31T07:32:41.566Z,28.63
2024-01-31T07:35:09.112Z,35.97
2024-01-31T07:37:39.921Z,30.00
2024-01-31T07:40:10.986Z,44.43
2024-01-31T07:42:41.314Z,46.07
2024-01-31T07:45:09.287Z,42.57
2024-01-31T07:47:39.097Z,43.50
2024-01-31T07:50:07.644Z,35.97
2024-01-31T07:52:36.212Z,41.17
2024-01-31T07:55:04.503Z,72.03
2024-01-31T07:57:31.917Z,49.33
2024-01-31T08:00:00.478Z,46.33
2024-01-31T08:02:27.529Z,38.83
2024-01-31T08:04:56.193Z,52.17
2024-01-31T08:07:23.422Z,36.47
2024-01-31T08:09:50.391Z,46.10
2024-01-31T08:12:18.576Z,36.73
2024-01-31T08:14:45.716Z,34.93
2024-01-31T08:17:12.697Z,30.73
2024-01-31T08:19:39.868Z,29.50
2024-01-31T08:22:07.609Z,27.87
2024-01-31T08:24:34.569Z,29.37
2024-01-31T08:27:01.575Z,27.80
2024-01-31T08:29:29.798Z,32.70
2024-01-31T08:31:56.945Z,63.40
2024-01-31T08:34:27.329Z,59.97
2024-01-31T08:36:56.882Z,42.30
2024-01-31T08:39:24.107Z,32.40
2024-01-31T08:41:51.302Z,33.67
2024-01-31T08:44:18.442Z,34.33
2024-01-31T08:46:57.898Z,27.60
2024-01-31T08:49:31.495Z,32.03
2024-01-31T08:51:58.577Z,32.03
2024-01-31T08:54:26.313Z,38.60
2024-01-31T08:56:53.356Z,33.77
2024-01-31T08:59:20.491Z,31.83
2024-01-31T09:01:47.959Z,83.50
2024-01-31T09:04:15.072Z,37.57
2024-01-31T09:06:44.918Z,28.60
2024-01-31T09:09:11.900Z,31.80
2024-01-31T09:11:39.408Z,36.53
2024-01-31T09:14:06.470Z,30.93
2024-01-31T09:16:34.881Z,36.67
2024-01-31T09:19:05.142Z,30.77
2024-01-31T09:21:32.400Z,30.30
2024-01-31T09:23:59.611Z,31.27
2024-01-31T09:26:26.905Z,34.97
2024-01-31T09:28:53.854Z,34.93
2024-01-31T09:31:25.180Z,53.47
2024-01-31T09:33:54.195Z,87.87
2024-01-31T09:36:21.832Z,79.17
2024-01-31T09:38:49.509Z,72.23
2024-01-31T09:41:17.602Z,117.40
2024-01-31T09:43:46.209Z,90.47
2024-01-31T09:46:14.310Z,65.10
2024-01-31T09:48:41.898Z,54.27
2024-01-31T09:51:10.088Z,61.97
2024-01-31T09:53:38.446Z,72.43
2024-01-31T09:56:08.757Z,57.03
2024-01-31T09:58:36.622Z,51.33
2024-01-31T10:01:10.753Z,41.03
2024-01-31T10:03:44.375Z,40.50
2024-01-31T10:06:12.886Z,44.27
2024-01-31T10:08:40.770Z,54.37
2024-01-31T10:11:08.146Z,64.37
2024-01-31T10:13:35.213Z,60.93
2024-01-31T10:16:02.347Z,59.60
2024-01-31T10:18:30.992Z,52.70
2024-01-31T10:20:58.946Z,49.83
2024-01-31T10:23:27.176Z,45.73
2024-01-31T10:25:54.725Z,45.33
2024-01-31T10:28:23.235Z,49.10
2024-01-31T10:30:50.423Z,47.60
2024-01-31T10:33:18.358Z,56.67
2024-01-31T10:36:24.391Z,47.60
2024-01-31T10:38:34.654Z,45.90
2024-01-31T10:41:03.620Z,45.03
2024-01-31T10:43:32.513Z,52.00
2024-01-31T10:45:59.968Z,45.10
2024-01-31T10:48:30.508Z,42.73
2024-01-31T10:51:00.667Z,42.53
2024-01-31T10:53:30.282Z,40.97
2024-01-31T10:55:59.451Z,96.57
2024-01-31T10:58:28.357Z,65.80
2024-01-31T11:00:55.418Z,151.27
2024-01-31T11:03:24.701Z,71.07
2024-01-31T11:05:53.311Z,61.97
2024-01-31T11:08:21.699Z,73.67
2024-01-31T11:10:49.912Z,53.57
2024-01-31T11:13:17.218Z,43.97
2024-01-31T11:15:45.862Z,40.87
2024-01-31T11:18:17.214Z,46.43
2024-01-31T11:20:49.463Z,46.33
2024-01-31T11:23:29.923Z,48.87
2024-01-31T11:25:57.207Z,46.47
2024-01-31T11:28:27.964Z,44.70
2024-01-31T11:30:56.007Z,44.67
2024-01-31T11:33:23.746Z,46.43
2024-01-31T11:35:52.014Z,53.60
2024-01-31T11:38:21.270Z,58.53
2024-01-31T11:40:48.946Z,52.90
2024-01-31T11:43:17.539Z,44.97
2024-01-31T11:45:45.920Z,40.73
2024-01-31T11:48:15.934Z,37.70
2024-01-31T11:50:43.309Z,40.10
2024-01-31T11:53:10.843Z,38.60
2024-01-31T11:55:38.274Z,42.27
2024-01-31T11:58:05.247Z,36.47
2024-01-31T12:00:32.890Z,32.77
2024-01-31T12:03:00.483Z,35.90
2024-01-31T12:05:27.821Z,36.80
2024-01-31T12:07:59.670Z,36.60
2024-01-31T12:10:29.828Z,32.83
2024-01-31T12:13:00.788Z,57.90
2024-01-31T12:15:28.625Z,89.80
2024-01-31T12:17:56.050Z,54.33
2024-01-31T12:20:23.587Z,80.27
2024-01-31T12:22:50.758Z,52.47
2024-01-31T12:25:17.763Z,51.67
2024-01-31T12:27:46.087Z,47.77
2024-01-31T12:30:13.527Z,51.17
2024-01-31T12:32:40.647Z,38.30
2024-01-31T12:35:08.266Z,31.67
2024-01-31T12:37:35.846Z,28.87
2024-01-31T12:40:02.771Z,26.03
2024-01-31T12:42:30.645Z,34.93
2024-01-31T12:44:58.353Z,37.23
2024-01-31T12:47:26.256Z,26.57
2024-01-31T12:49:53.642Z,26.23
2024-01-31T12:52:25.677Z,25.57
2024-01-31T12:54:53.076Z,25.30
2024-01-31T12:57:20.229Z,23.70
2024-01-31T12:59:51.316Z,22.77
2024-01-31T13:02:18.414Z,25.77
2024-01-31T13:04:45.830Z,24.10
2024-01-31T13:07:13.655Z,21.07
2024-01-31T13:09:41.228Z,24.83
2024-01-31T13:12:11.982Z,21.23
2024-01-31T13:14:40.732Z,19.03
2024-01-31T13:17:07.837Z,21.33
2024-01-31T13:19:36.900Z,18.60
2024-01-31T13:22:04.018Z,19.30
2024-01-31T13:24:32.779Z,18.83
2024-01-31T13:27:00.040Z,21.73
2024-01-31T13:29:27.331Z,20.33
2024-01-31T13:31:54.575Z,19.77
2024-01-31T13:34:22.345Z,20.83
2024-01-31T13:36:50.625Z,20.17
2024-01-31T13:39:18.429Z,22.47
2024-01-31T13:41:45.430Z,19.63
2024-01-31T13:44:12.475Z,19.57
2024-01-31T13:46:40.201Z,17.73
2024-01-31T13:49:07.975Z,19.50
2024-01-31T13:51:36.885Z,18.10
2024-01-31T13:54:04.240Z,18.30
2024-01-31T13:56:31.443Z,16.97
2024-01-31T13:58:58.402Z,18.70
2024-01-31T14:01:25.520Z,16.63
2024-01-31T14:03:52.480Z,17.47
2024-01-31T14:06:19.682Z,17.17
2024-01-31T14:08:46.962Z,26.40
2024-01-31T14:11:21.283Z,15.53
2024-01-31T14:13:49.084Z,19.07
2024-01-31T14:16:16.049Z,16.70
2024-01-31T14:18:43.144Z,16.17
2024-01-31T14:21:17.985Z,16.13
2024-01-31T14:23:48.041Z,16.80
2024-01-31T14:26:18.331Z,18.13
2024-01-31T14:28:45.261Z,16.97
2024-01-31T14:31:12.721Z,18.37
2024-01-31T14:33:40.544Z,19.97
2024-01-31T14:36:11.149Z,21.53
2024-01-31T14:38:39.731Z,19.17
2024-01-31T14:41:08.774Z,18.97
2024-01-31T14:43:35.776Z,26.20
2024-01-31T14:46:03.258Z,22.33
2024-01-31T14:48:30.373Z,16.50
2024-01-31T14:50:57.754Z,15.90
2024-01-31T14:53:25.109Z,16.23
2024-01-31T14:55:53.111Z,14.03
2024-01-31T14:58:20.666Z,14.53
2024-01-31T15:00:47.844Z,18.77
2024-01-31T15:03:15.043Z,16.80
2024-01-31T15:05:42.231Z,15.13
2024-01-31T15:08:09.913Z,15.87
2024-01-31T15:10:37.224Z,30.03
2024-01-31T15:13:04.412Z,16.03
2024-01-31T15:15:33.106Z,16.93
2024-01-31T15:18:00.278Z,20.83
2024-01-31T15:20:27.556Z,15.10
2024-01-31T15:22:54.612Z,15.53
2024-01-31T15:25:22.317Z,14.87
2024-01-31T15:27:50.912Z,15.47
2024-01-31T15:30:18.496Z,15.73
2024-01-31T15:32:45.763Z,18.67
2024-01-31T15:35:13.037Z,25.60
2024-01-31T15:37:40.684Z,40.83
2024-01-31T15:40:10.509Z,18.67
2024-01-31T15:42:37.690Z,16.73
2024-01-31T15:45:06.338Z,24.70
2024-01-31T15:47:36.306Z,22.67
2024-01-31T15:50:05.061Z,30.97
2024-01-31T15:52:32.215Z,25.90
2024-01-31T15:54:59.183Z,30.50
2024-01-31T15:57:26.736Z,36.20
2024-01-31T15:59:55.250Z,28.17
2024-01-31T16:02:22.907Z,20.13
2024-01-31T16:04:50.085Z,16.13
2024-01-31T16:07:19.848Z,18.27
2024-01-31T16:09:46.845Z,16.17
2024-01-31T16:12:14.203Z,14.73
2024-01-31T16:14:41.182Z,15.00
2024-01-31T16:17:08.276Z,14.97
2024-01-31T16:19:36.411Z,16.00
2024-01-31T16:22:04.334Z,20.93
2024-01-31T16:24:32.132Z,16.57
2024-01-31T16:26:59.385Z,16.17
2024-01-31T16:29:26.372Z,16.70
2024-01-31T16:31:54.125Z,16.43
2024-01-31T16:34:23.035Z,20.43
2024-01-31T16:36:53.132Z,17.80
2024-01-31T16:39:20.396Z,18.37
2024-01-31T16:41:52.531Z,19.83
2024-01-31T16:44:20.387Z,18.90
2024-01-31T16:46:47.869Z,18.80
2024-01-31T16:49:15.028Z,18.67
2024-01-31T16:51:46.222Z,18.67
2024-01-31T16:54:14.008Z,18.37
2024-01-31T16:56:42.096Z,18.23
2024-01-31T16:59:09.178Z,20.10
2024-01-31T17:01:37.012Z,19.70
2024-01-31T17:04:04.364Z,26.50
2024-01-31T17:06:31.584Z,34.73
2024-01-31T17:08:58.621Z,27.53
2024-01-31T17:11:25.929Z,26.33
2024-01-31T17:13:53.093Z,23.23
2024-01-31T17:16:22.765Z,24.33
2024-01-31T17:18:50.361Z,22.17
2024-01-31T17:21:17.725Z,24.40
2024-01-31T17:23:44.760Z,24.27
2024-01-31T17:26:11.931Z,23.33
2024-01-31T17:28:39.220Z,22.77
2024-01-31T17:31:06.228Z,20.60
2024-01-31T17:33:33.466Z,20.07
2024-01-31T17:36:00.638Z,20.57
2024-01-31T17:38:27.959Z,20.63
2024-01-31T17:40:55.095Z,20.43
2024-01-31T17:43:25.801Z,22.40
2024-01-31T17:45:54.067Z,21.80
2024-01-31T17:48:21.602Z,20.43
2024-01-31T17:50:48.715Z,19.50
2024-01-31T17:53:16.095Z,22.37
2024-01-31T17:55:43.415Z,21.53
2024-01-31T17:58:10.683Z,20.83
2024-01-31T18:00:38.290Z,21.90
2024-01-31T18:03:05.557Z,20.80
2024-01-31T18:05:32.833Z,23.63
2024-01-31T18:08:00.658Z,22.63
2024-01-31T18:10:27.712Z,20.07
2024-01-31T18:12:54.759Z,22.00
2024-01-31T18:15:23.759Z,23.80
2024-01-31T18:17:52.469Z,19.00
2024-01-31T18:20:19.539Z,25.30
2024-01-31T18:22:46.624Z,20.53
2024-01-31T18:25:13.657Z,20.67
2024-01-31T18:27:42.648Z,22.83
2024-01-31T18:30:11.991Z,20.60
2024-01-31T18:32:39.366Z,26.00
2024-01-31T18:35:07.248Z,22.90
2024-01-31T18:37:35.237Z,29.97
2024-01-31T18:40:02.140Z,25.03
2024-01-31T18:42:29.210Z,23.97
2024-01-31T18:44:56.392Z,27.00
2024-01-31T18:47:23.590Z,22.87
2024-01-31T18:49:51.286Z,23.20
2024-01-31T18:52:18.691Z,20.67
2024-01-31T18:54:45.671Z,24.77
2024-01-31T18:57:15.384Z,21.17
2024-01-31T18:59:43.774Z,20.63
2024-01-31T19:02:10.699Z,19.57
2024-01-31T19:04:38.388Z,20.17
2024-01-31T19:07:05.913Z,21.73
2024-01-31T19:09:32.944Z,21.30
2024-01-31T19:12:00.494Z,20.23
2024-01-31T19:14:28.935Z,25.40
2024-01-31T19:17:00.306Z,19.17
2024-01-31T19:19:29.811Z,21.00
2024-01-31T19:21:56.774Z,20.53
2024-01-31T19:24:23.940Z,19.77
2024-01-31T19:26:54.769Z,20.73
2024-01-31T19:29:21.724Z,21.83
2024-01-31T19:31:49.701Z,20.40
2024-01-31T19:34:17.310Z,20.73
2024-01-31T19:36:47.007Z,20.57
2024-01-31T19:39:17.142Z,19.30
2024-01-31T19:41:46.502Z,21.57
2024-01-31T19:44:17.906Z,20.80
2024-01-31T19:46:55.463Z,20.43
2024-01-31T19:49:23.006Z,19.77
2024-01-31T19:51:51.445Z,21.47
2024-01-31T19:54:19.144Z,22.00
2024-01-31T19:56:46.671Z,22.67
2024-01-31T19:59:14.233Z,21.80
2024-01-31T20:01:41.767Z,22.40
2024-01-31T20:04:12.143Z,23.33
2024-01-31T20:06:40.944Z,22.63
2024-01-31T20:09:11.399Z,22.03
2024-01-31T20:11:38.833Z,21.47
2024-01-31T20:14:08.322Z,23.37
2024-01-31T20:16:35.602Z,22.23
2024-01-31T20:19:04.449Z,24.93
2024-01-31T20:21:32.379Z,24.60
2024-01-31T20:24:01.536Z,25.93
2024-01-31T20:26:30.562Z,25.30
2024-01-31T20:28:58.593Z,24.07
2024-01-31T20:31:25.879Z,24.77
2024-01-31T20:33:54.152Z,26.17
2024-01-31T20:36:21.571Z,30.83
2024-01-31T20:38:51.154Z,33.10
2024-01-31T20:41:18.724Z,39.30
2024-01-31T20:43:46.005Z,38.47
2024-01-31T20:46:23.960Z,41.73
2024-01-31T20:48:51.699Z,63.33
2024-01-31T20:51:19.611Z,68.57
2024-01-31T20:53:52.140Z,103.40
2024-01-31T20:56:25.762Z,95.57
2024-01-31T20:58:54.970Z,83.83
2024-01-31T21:01:22.469Z,88.83
2024-01-31T21:03:52.809Z,80.60
2024-01-31T21:06:20.801Z,95.93
2024-01-31T21:08:48.185Z,83.60
2024-01-31T21:11:18.420Z,76.80
2024-01-31T21:13:45.708Z,72.37
2024-01-31T21:16:12.678Z,73.97
2024-01-31T21:18:40.183Z,77.83
2024-01-31T21:21:08.023Z,94.47
2024-01-31T21:23:35.087Z,83.63
2024-01-31T21:26:02.927Z,92.47
2024-01-31T21:28:29.982Z,293.53
2024-01-31T21:30:56.963Z,252.30
2024-01-31T21:33:24.255Z,187.60
2024-01-31T21:35:54.144Z,100.03
2024-01-31T21:38:22.499Z,112.50
2024-01-31T21:40:49.768Z,90.40
2024-01-31T21:43:16.944Z,87.83
2024-01-31T21:45:43.989Z,97.57
2024-01-31T21:48:11.235Z,89.87
2024-01-31T21:50:38.759Z,75.77
2024-01-31T21:53:06.060Z,66.23
2024-01-31T21:55:35.859Z,63.40
2024-01-31T21:58:02.977Z,59.93
2024-01-31T22:00:30.283Z,50.33
2024-01-31T22:02:57.367Z,43.70
2024-01-31T22:05:24.708Z,44.53
2024-01-31T22:07:51.947Z,32.00
2024-01-31T22:10:19.899Z,26.10
2024-01-31T22:12:46.816Z,23.57
2024-01-31T22:15:14.845Z,23.60
2024-01-31T22:17:42.484Z,31.37
2024-01-31T22:20:17.383Z,32.80
2024-01-31T22:22:44.365Z,56.90
2024-01-31T22:25:11.346Z,54.90
2024-01-31T22:27:38.522Z,41.17
2024-01-31T22:30:06.467Z,50.97
2024-01-31T22:32:35.168Z,62.37
2024-01-31T22:35:03.234Z,83.37
2024-01-31T22:37:30.260Z,123.80
2024-01-31T22:39:57.269Z,104.60
2024-01-31T22:42:24.291Z,95.80
2024-01-31T22:44:51.220Z,178.30
2024-01-31T22:47:18.145Z,151.40
2024-01-31T22:49:45.455Z,99.63
2024-01-31T22:52:13.077Z,112.67
2024-01-31T22:54:47.504Z,197.17
2024-01-31T22:57:21.322Z,151.63
2024-01-31T22:59:48.267Z,197.10
2024-01-31T23:02:15.371Z,202.27
2024-01-31T23:04:42.561Z,195.50
2024-01-31T23:07:09.883Z,112.87
2024-01-31T23:09:36.926Z,99.17
2024-01-31T23:12:04.180Z,112.30
2024-01-31T23:14:31.243Z,98.17
2024-01-31T23:16:58.225Z,67.03
2024-01-31T23:19:25.576Z,56.70
2024-01-31T23:21:52.888Z,49.50
2024-01-31T23:24:22.845Z,50.40
2024-01-31T23:26:50.123Z,43.47
2024-01-31T23:29:17.429Z,42.57
2024-01-31T23:31:44.946Z,45.13
2024-01-31T23:34:12.311Z,54.57
2024-01-31T23:36:39.459Z,54.77
2024-01-31T23:39:07.202Z,56.87
2024-01-31T23:41:34.245Z,75.60
2024-01-31T23:44:01.276Z,290.53
2024-01-31T23:46:28.394Z,167.87
2024-01-31T23:48:55.566Z,117.67
2024-01-31T23:51:23.198Z,59.10
2024-01-31T23:53:50.237Z,50.93
2024-01-31T23:56:24.092Z,48.17
2024-01-31T23:58:51.064Z,51.23
